createdAt,value
2023-04-19T00:00:41.000Z,16.2
2023-04-19T00:01:54.000Z,16.2
2023-04-19T00:03:06.000Z,16.2
2023-04-19T00:04:18.000Z,16.2
2023-04-19T00:05:30.000Z,16.1
2023-04-19T00:06:41.000Z,16.2
2023-04-19T00:07:53.000Z,16.8
2023-04-19T00:09:06.000Z,16.5
2023-04-19T00:10:18.000Z,16.7
2023-04-19T00:11:30.000Z,16.1
2023-04-19T00:12:42.000Z,16.2
2023-04-19T00:13:54.000Z,16.2
2023-04-19T00:15:07.000Z,16.5
2023-04-19T00:16:19.000Z,16.5
2023-04-19T00:17:31.000Z,16.5
2023-04-19T00:18:43.000Z,16.2
2023-04-19T00:19:55.000Z,16.2
2023-04-19T00:21:07.000Z,16.8
2023-04-19T00:22:19.000Z,16.2
2023-04-19T00:23:31.000Z,16.5
2023-04-19T00:24:43.000Z,16.7
2023-04-19T00:25:55.000Z,16.7
2023-04-19T00:27:07.000Z,16.1
2023-04-19T00:28:20.000Z,16.2
2023-04-19T00:29:32.000Z,16.2
2023-04-19T00:30:44.000Z,16.5
2023-04-19T00:31:56.000Z,16.7
2023-04-19T00:33:08.000Z,16.5
2023-04-19T00:34:21.000Z,16.2
2023-04-19T00:35:33.000Z,16.5
2023-04-19T00:36:45.000Z,16.7
2023-04-19T00:37:56.000Z,16.5
2023-04-19T00:39:08.000Z,16.7
2023-04-19T00:40:20.000Z,16.2
2023-04-19T00:41:33.000Z,16.7
2023-04-19T00:42:45.000Z,16.2
2023-04-19T00:43:57.000Z,16.2
2023-04-19T00:45:09.000Z,16.6
2023-04-19T00:46:21.000Z,16.5
2023-04-19T00:47:34.000Z,16.6
2023-04-19T00:48:46.000Z,16.6
2023-04-19T00:49:58.000Z,16.1
2023-04-19T00:51:10.000Z,16.8
2023-04-19T00:52:22.000Z,16.1
2023-04-19T00:53:33.000Z,16.7
2023-04-19T00:54:46.000Z,16.8
2023-04-19T00:55:58.000Z,16.2
2023-04-19T00:57:10.000Z,16.5
2023-04-19T00:58:22.000Z,16.7
2023-04-19T00:59:34.000Z,16.2
2023-04-19T01:00:47.000Z,16.2
2023-04-19T01:01:59.000Z,16.2
2023-04-19T01:03:11.000Z,16.5
2023-04-19T01:04:23.000Z,16.5
2023-04-19T01:05:35.000Z,16.5
2023-04-19T01:06:48.000Z,16.8
2023-04-19T01:08:00.000Z,16.5
2023-04-19T01:09:11.000Z,16.5
2023-04-19T01:10:23.000Z,16.5
2023-04-19T01:11:35.000Z,16.1
2023-04-19T01:12:47.000Z,16.1
2023-04-19T01:14:00.000Z,16.7
2023-04-19T01:15:12.000Z,16.2
2023-04-19T01:16:24.000Z,16.5
2023-04-19T01:17:36.000Z,16.2
2023-04-19T01:18:48.000Z,16.8
2023-04-19T01:20:01.000Z,16.2
2023-04-19T01:21:13.000Z,16.5
2023-04-19T01:22:25.000Z,16.7
2023-04-19T01:23:37.000Z,16.5
2023-04-19T01:24:48.000Z,16.1
2023-04-19T01:26:00.000Z,16.7
2023-04-19T01:28:25.000Z,16.7
2023-04-19T01:28:25.750Z,16.6
2023-04-19T01:29:37.000Z,16.7
2023-04-19T01:30:49.000Z,16.1
2023-04-19T01:32:01.000Z,16.5
2023-04-19T01:33:14.000Z,16.7
2023-04-19T01:35:38.000Z,16.2
2023-04-19T01:35:38.851Z,16.2
2023-04-19T01:36:50.000Z,16.7
2023-04-19T01:38:02.000Z,16.5
2023-04-19T01:39:15.000Z,16.5
2023-04-19T01:40:26.000Z,16.2
2023-04-19T01:41:38.000Z,16.8
2023-04-19T01:42:50.000Z,16.5
2023-04-19T01:44:02.000Z,16.8
2023-04-19T01:45:14.000Z,16.1
2023-04-19T01:46:27.000Z,16.2
2023-04-19T01:47:39.000Z,16.1
2023-04-19T01:48:51.000Z,16.1
2023-04-19T01:50:03.000Z,16.7
2023-04-19T01:51:15.000Z,16.2
2023-04-19T01:52:28.000Z,16.2
2023-04-19T01:53:40.000Z,16.8
2023-04-19T01:54:52.000Z,16.2
2023-04-19T01:56:03.000Z,16.5
2023-04-19T01:57:15.000Z,16.5
2023-04-19T01:58:27.000Z,16.1
2023-04-19T01:59:40.000Z,16.1
2023-04-19T02:00:52.000Z,16.5
2023-04-19T02:02:04.000Z,16.6
2023-04-19T02:03:16.000Z,16.2
2023-04-19T02:04:28.000Z,16.5
2023-04-19T02:05:41.000Z,16.5
2023-04-19T02:06:53.000Z,16.7
2023-04-19T02:08:05.000Z,16.5
2023-04-19T02:09:17.000Z,16.1
2023-04-19T02:10:29.000Z,16.2
2023-04-19T02:11:41.000Z,16.5
2023-04-19T02:12:53.000Z,16.6
2023-04-19T02:14:05.000Z,16.7
2023-04-19T02:15:17.000Z,16.5
2023-04-19T02:16:29.000Z,16.5
2023-04-19T02:17:41.000Z,16.2
2023-04-19T02:18:54.000Z,16.6
2023-04-19T02:20:06.000Z,16.5
2023-04-19T02:21:18.000Z,16.2
2023-04-19T02:22:30.000Z,16.8
2023-04-19T02:23:42.000Z,16.5
2023-04-19T02:24:55.000Z,16.5
2023-04-19T02:26:07.000Z,16.7
2023-04-19T02:27:18.000Z,16.7
2023-04-19T02:28:30.000Z,16.5
2023-04-19T02:29:42.000Z,16.5
2023-04-19T02:30:54.000Z,16.5
2023-04-19T02:32:07.000Z,16.2
2023-04-19T02:33:19.000Z,16.5
2023-04-19T02:34:31.000Z,16.5
2023-04-19T02:35:43.000Z,16.2
2023-04-19T02:36:55.000Z,16.1
2023-04-19T02:38:08.000Z,16.5
2023-04-19T02:39:20.000Z,16.2
2023-04-19T02:40:32.000Z,16.1
2023-04-19T02:41:44.000Z,16.2
2023-04-19T02:42:55.000Z,16.5
2023-04-19T02:44:08.000Z,16.2
2023-04-19T02:45:20.000Z,16.1
2023-04-19T02:46:32.000Z,16.8
2023-04-19T02:47:44.000Z,16.2
2023-04-19T02:48:56.000Z,16.1
2023-04-19T02:50:08.000Z,16.5
2023-04-19T02:51:21.000Z,16.2
2023-04-19T02:52:33.000Z,16.2
2023-04-19T02:53:45.000Z,16.1
2023-04-19T02:54:57.000Z,16.1
2023-04-19T02:56:09.000Z,16.2
2023-04-19T02:57:22.000Z,16.1
2023-04-19T02:58:33.000Z,16.8
2023-04-19T02:59:45.000Z,16.5
2023-04-19T03:00:57.000Z,16.5
2023-04-19T03:02:09.000Z,16.4
2023-04-19T03:03:21.000Z,16.1
2023-04-19T03:04:34.000Z,16.2
2023-04-19T03:05:46.000Z,16.1
2023-04-19T03:06:58.000Z,16.1
2023-04-19T03:08:10.000Z,16.5
2023-04-19T03:09:22.000Z,16.1
2023-04-19T03:10:35.000Z,16.5
2023-04-19T03:11:47.000Z,16.1
2023-04-19T03:12:59.000Z,16.5
2023-04-19T03:14:10.000Z,16.1
2023-04-19T03:15:22.000Z,16.2
2023-04-19T03:16:35.000Z,16.1
2023-04-19T03:17:47.000Z,16.5
2023-04-19T03:18:59.000Z,15.9
2023-04-19T03:20:11.000Z,16.5
2023-04-19T03:21:23.000Z,16.1
2023-04-19T03:22:35.000Z,16.5
2023-04-19T03:23:48.000Z,16.5
2023-04-19T03:25:00.000Z,16.5
2023-04-19T03:26:12.000Z,16.5
2023-04-19T03:27:24.000Z,16.5
2023-04-19T03:28:36.000Z,16.1
2023-04-19T03:29:48.000Z,16.5
2023-04-19T03:31:00.000Z,16.5
2023-04-19T03:32:12.000Z,16.2
2023-04-19T03:33:24.000Z,16.1
2023-04-19T03:34:36.000Z,16.5
2023-04-19T03:35:48.000Z,16.1
2023-04-19T03:37:01.000Z,16.5
2023-04-19T03:38:13.000Z,16.5
2023-04-19T03:39:25.000Z,16.5
2023-04-19T03:40:37.000Z,16.1
2023-04-19T03:41:49.000Z,16.2
2023-04-19T03:43:02.000Z,16.1
2023-04-19T03:44:14.000Z,16.1
2023-04-19T03:45:25.000Z,16.2
2023-04-19T03:46:37.000Z,16.1
2023-04-19T03:47:49.000Z,16.2
2023-04-19T03:49:02.000Z,16.2
2023-04-19T03:50:14.000Z,16.5
2023-04-19T03:51:26.000Z,16.2
2023-04-19T03:52:38.000Z,16.2
2023-04-19T03:53:50.000Z,16.8
2023-04-19T03:55:02.000Z,16.2
2023-04-19T03:56:15.000Z,16.2
2023-04-19T03:57:27.000Z,16.2
2023-04-19T03:58:39.000Z,15.9
2023-04-19T03:59:51.000Z,16.2
2023-04-19T04:01:02.000Z,16.2
2023-04-19T04:02:15.000Z,15.9
2023-04-19T04:03:27.000Z,16.1
2023-04-19T04:04:39.000Z,15.9
2023-04-19T04:05:51.000Z,16
2023-04-19T04:07:03.000Z,16.5
2023-04-19T04:08:14.000Z,16.1
2023-04-19T04:09:27.000Z,16.2
2023-04-19T04:10:39.000Z,15.9
2023-04-19T04:11:51.000Z,16.2
2023-04-19T04:13:03.000Z,16.2
2023-04-19T04:14:15.000Z,15.9
2023-04-19T04:15:28.000Z,16
2023-04-19T04:16:40.000Z,16.2
2023-04-19T04:17:52.000Z,16.2
2023-04-19T04:19:04.000Z,15.9
2023-04-19T04:20:16.000Z,16
2023-04-19T04:21:29.000Z,15.6
2023-04-19T04:22:41.000Z,15.9
2023-04-19T04:23:52.000Z,16
2023-04-19T04:25:04.000Z,15.5
2023-04-19T04:26:16.000Z,15.9
2023-04-19T04:27:28.000Z,16.1
2023-04-19T04:28:41.000Z,16.2
2023-04-19T04:29:53.000Z,15.9
2023-04-19T04:31:05.000Z,15.9
2023-04-19T04:32:17.000Z,16.1
2023-04-19T04:33:29.000Z,15.9
2023-04-19T04:34:42.000Z,16.1
2023-04-19T04:35:54.000Z,15.9
2023-04-19T04:37:06.000Z,15.9
2023-04-19T04:38:18.000Z,15.9
2023-04-19T04:39:29.000Z,15.9
2023-04-19T04:40:41.000Z,16.2
2023-04-19T04:41:54.000Z,16
2023-04-19T04:43:06.000Z,16.2
2023-04-19T04:44:18.000Z,16.1
2023-04-19T04:45:30.000Z,15.9
2023-04-19T04:46:42.000Z,16.2
2023-04-19T04:47:55.000Z,16
2023-04-19T04:49:07.000Z,16.2
2023-04-19T04:50:19.000Z,15.9
2023-04-19T04:51:31.000Z,15.9
2023-04-19T04:52:43.000Z,16
2023-04-19T04:53:56.000Z,15.6
2023-04-19T04:55:07.000Z,15.9
2023-04-19T04:56:19.000Z,15.5
2023-04-19T04:57:31.000Z,15.6
2023-04-19T04:58:43.000Z,16
2023-04-19T04:59:55.000Z,16.1
2023-04-19T05:01:08.000Z,16.2
2023-04-19T05:02:20.000Z,16
2023-04-19T05:03:32.000Z,16.2
2023-04-19T05:04:44.000Z,16.2
2023-04-19T05:05:56.000Z,16
2023-04-19T05:07:09.000Z,15.6
2023-04-19T05:08:21.000Z,16
2023-04-19T05:09:33.000Z,16.1
2023-04-19T05:10:44.000Z,16
2023-04-19T05:11:56.000Z,15.5
2023-04-19T05:13:08.000Z,15.9
2023-04-19T05:14:21.000Z,15.9
2023-04-19T05:15:33.000Z,15.9
2023-04-19T05:16:45.000Z,15.6
2023-04-19T05:17:57.000Z,15.6
2023-04-19T05:19:09.000Z,15.6
2023-04-19T05:20:22.000Z,16.2
2023-04-19T05:21:34.000Z,15.9
2023-04-19T05:22:46.000Z,16.2
2023-04-19T05:23:58.000Z,15.9
2023-04-19T05:25:10.000Z,15.9
2023-04-19T05:26:22.000Z,16
2023-04-19T05:27:34.000Z,16.1
2023-04-19T05:28:46.000Z,15.6
2023-04-19T05:29:58.000Z,15.9
2023-04-19T05:31:10.000Z,16.1
2023-04-19T05:32:22.000Z,15.6
2023-04-19T05:33:35.000Z,15.9
2023-04-19T05:34:47.000Z,15.9
2023-04-19T05:35:59.000Z,15.9
2023-04-19T05:37:11.000Z,15.5
2023-04-19T05:38:23.000Z,15.9
2023-04-19T05:39:36.000Z,15.9
2023-04-19T05:40:48.000Z,15.9
2023-04-19T05:41:59.000Z,15.6
2023-04-19T05:43:11.000Z,16.2
2023-04-19T05:44:23.000Z,15.9
2023-04-19T05:45:35.000Z,15.9
2023-04-19T05:46:48.000Z,15.6
2023-04-19T05:48:00.000Z,16
2023-04-19T05:49:12.000Z,15.6
2023-04-19T05:50:24.000Z,15.9
2023-04-19T05:51:36.000Z,15.6
2023-04-19T05:52:49.000Z,15.6
2023-04-19T05:54:01.000Z,15.6
2023-04-19T05:55:13.000Z,16.2
2023-04-19T05:56:25.000Z,15.9
2023-04-19T05:57:36.000Z,15.9
2023-04-19T05:58:49.000Z,15.6
2023-04-19T06:00:01.000Z,15.6
2023-04-19T06:01:13.000Z,16.2
2023-04-19T06:02:25.000Z,15.6
2023-04-19T06:03:37.000Z,16.2
2023-04-19T06:04:49.000Z,16.2
2023-04-19T06:06:02.000Z,15.6
2023-04-19T06:07:14.000Z,15.9
2023-04-19T06:08:26.000Z,16.2
2023-04-19T06:09:38.000Z,15.6
2023-04-19T06:10:50.000Z,16.1
2023-04-19T06:12:03.000Z,16.1
2023-04-19T06:13:14.000Z,16.2
2023-04-19T06:14:26.000Z,15.9
2023-04-19T06:15:38.000Z,15.9
2023-04-19T06:16:50.000Z,15.6
2023-04-19T06:18:02.000Z,16
2023-04-19T06:19:15.000Z,16.2
2023-04-19T06:20:27.000Z,15.9
2023-04-19T06:21:39.000Z,16.2
2023-04-19T06:22:51.000Z,15.9
2023-04-19T06:24:03.000Z,15.9
2023-04-19T06:25:16.000Z,15.9
2023-04-19T06:26:28.000Z,15.9
2023-04-19T06:27:40.000Z,15.9
2023-04-19T06:28:51.000Z,15.9
2023-04-19T06:30:03.000Z,16
2023-04-19T06:31:16.000Z,15.6
2023-04-19T06:32:28.000Z,15.9
2023-04-19T06:33:40.000Z,15.9
2023-04-19T06:34:52.000Z,15.9
2023-04-19T06:36:04.000Z,16.2
2023-04-19T06:37:16.000Z,16
2023-04-19T06:38:29.000Z,15.9
2023-04-19T06:39:41.000Z,15.6
2023-04-19T06:40:53.000Z,15.6
2023-04-19T06:42:05.000Z,16
2023-04-19T06:43:17.000Z,16.2
2023-04-19T06:44:29.000Z,16
2023-04-19T06:45:41.000Z,15.9
2023-04-19T06:46:53.000Z,15.9
2023-04-19T06:48:05.000Z,16.1
2023-04-19T06:49:17.000Z,15.9
2023-04-19T06:50:29.000Z,15.9
2023-04-19T06:51:42.000Z,16
2023-04-19T06:54:06.000Z,15.9
2023-04-19T06:54:07.172Z,15.6
2023-04-19T06:55:18.000Z,15.6
2023-04-19T06:56:30.000Z,15.9
2023-04-19T06:57:43.000Z,15.5
2023-04-19T06:58:55.000Z,16.2
2023-04-19T07:00:06.000Z,15.9
2023-04-19T07:01:18.000Z,15.9
2023-04-19T07:02:30.000Z,15.9
2023-04-19T07:03:43.000Z,15.5
2023-04-19T07:04:55.000Z,15.6
2023-04-19T07:06:07.000Z,15.9
2023-04-19T07:07:19.000Z,15.6
2023-04-19T07:08:31.000Z,15.9
2023-04-19T07:09:43.000Z,16.2
2023-04-19T07:10:56.000Z,15.5
2023-04-19T07:12:08.000Z,15.9
2023-04-19T07:13:20.000Z,15.6
2023-04-19T07:14:32.000Z,15.9
2023-04-19T07:15:43.000Z,15.9
2023-04-19T07:16:56.000Z,15.5
2023-04-19T07:18:08.000Z,15.6
2023-04-19T07:19:20.000Z,16
2023-04-19T07:20:32.000Z,15.6
2023-04-19T07:21:44.000Z,15.6
2023-04-19T07:22:56.000Z,15.9
2023-04-19T07:24:09.000Z,15.6
2023-04-19T07:25:21.000Z,15.6
2023-04-19T07:26:33.000Z,16
2023-04-19T07:27:45.000Z,16.2
2023-04-19T07:28:57.000Z,15.6
2023-04-19T07:30:10.000Z,15.6
2023-04-19T07:31:21.000Z,15.5
2023-04-19T07:32:33.000Z,15.6
2023-04-19T07:33:45.000Z,16
2023-04-19T07:34:57.000Z,15.6
2023-04-19T07:36:10.000Z,15.6
2023-04-19T07:37:22.000Z,15.9
2023-04-19T07:38:34.000Z,16.1
2023-04-19T07:39:46.000Z,15.6
2023-04-19T07:40:58.000Z,15.5
2023-04-19T07:42:10.000Z,15.6
2023-04-19T07:43:23.000Z,15.9
2023-04-19T07:44:35.000Z,15.6
2023-04-19T07:45:47.000Z,15.9
2023-04-19T07:46:58.000Z,15.6
2023-04-19T07:48:10.000Z,16.2
2023-04-19T07:49:23.000Z,16
2023-04-19T07:50:35.000Z,15.9
2023-04-19T07:51:47.000Z,15.9
2023-04-19T07:52:59.000Z,15.9
2023-04-19T07:54:11.000Z,16
2023-04-19T07:55:23.000Z,15.9
2023-04-19T07:56:36.000Z,15.9
2023-04-19T07:57:48.000Z,15.6
2023-04-19T07:59:00.000Z,15.6
2023-04-19T08:00:12.000Z,15.9
2023-04-19T08:01:24.000Z,15.5
2023-04-19T08:02:36.000Z,15.9
2023-04-19T08:03:48.000Z,15.6
2023-04-19T08:05:00.000Z,15.9
2023-04-19T08:06:12.000Z,15.6
2023-04-19T08:07:24.000Z,15.6
2023-04-19T08:08:37.000Z,15.6
2023-04-19T08:09:48.000Z,15.5
2023-04-19T08:11:00.000Z,15.6
2023-04-19T08:12:12.000Z,15.6
2023-04-19T08:13:24.000Z,15.6
2023-04-19T08:14:36.000Z,15.6
2023-04-19T08:15:49.000Z,15.6
2023-04-19T08:17:01.000Z,15.9
2023-04-19T08:18:13.000Z,15.5
2023-04-19T08:19:25.000Z,15.9
2023-04-19T08:20:37.000Z,15.9
2023-04-19T08:21:50.000Z,15.9
2023-04-19T08:23:02.000Z,15.9
2023-04-19T08:24:14.000Z,15.9
2023-04-19T08:25:25.000Z,16
2023-04-19T08:26:37.000Z,16.5
2023-04-19T08:27:50.000Z,16.2
2023-04-19T08:29:02.000Z,16
2023-04-19T08:30:14.000Z,15.6
2023-04-19T08:31:26.000Z,16.2
2023-04-19T08:32:38.000Z,15.6
2023-04-19T08:35:03.000Z,15.4
2023-04-19T08:35:03.786Z,15.9
2023-04-19T08:36:15.000Z,15.9
2023-04-19T08:37:27.000Z,15.9
2023-04-19T08:38:39.000Z,15.6
2023-04-19T08:39:51.000Z,16.2
2023-04-19T08:41:03.000Z,15.9
2023-04-19T08:42:15.000Z,16.2
2023-04-19T08:43:27.000Z,16
2023-04-19T08:44:39.000Z,16.1
2023-04-19T08:45:51.000Z,15.9
2023-04-19T08:47:03.000Z,15.9
2023-04-19T08:48:16.000Z,16
2023-04-19T08:49:28.000Z,16.2
2023-04-19T08:50:40.000Z,16.1
2023-04-19T08:51:52.000Z,16.2
2023-04-19T08:53:04.000Z,15.9
2023-04-19T08:54:17.000Z,15.9
2023-04-19T08:55:29.000Z,16.2
2023-04-19T08:56:40.000Z,16.2
2023-04-19T08:57:52.000Z,15.9
2023-04-19T08:59:04.000Z,16
2023-04-19T09:00:17.000Z,15.9
2023-04-19T09:01:29.000Z,15.6
2023-04-19T09:02:41.000Z,15.9
2023-04-19T09:03:53.000Z,16.1
2023-04-19T09:05:05.000Z,15.9
2023-04-19T09:06:17.000Z,16.1
2023-04-19T09:07:30.000Z,16.2
2023-04-19T09:08:42.000Z,15.6
2023-04-19T09:09:54.000Z,16.2
2023-04-19T09:11:06.000Z,15.9
2023-04-19T09:13:30.000Z,15.9
2023-04-19T09:13:30.749Z,16.2
2023-04-19T09:14:42.000Z,16.1
2023-04-19T09:15:54.000Z,16.2
2023-04-19T09:17:06.000Z,16.2
2023-04-19T09:18:18.000Z,15.9
2023-04-19T09:19:30.000Z,16.2
2023-04-19T09:20:43.000Z,16
2023-04-19T09:21:55.000Z,16.1
2023-04-19T09:23:07.000Z,15.9
2023-04-19T09:24:19.000Z,16
2023-04-19T09:25:31.000Z,15.9
2023-04-19T09:26:44.000Z,16
2023-04-19T09:27:55.000Z,16.2
2023-04-19T09:29:07.000Z,15.9
2023-04-19T09:30:19.000Z,15.9
2023-04-19T09:31:31.000Z,15.9
2023-04-19T09:32:44.000Z,16.2
2023-04-19T09:33:56.000Z,16.2
2023-04-19T09:35:08.000Z,15.9
2023-04-19T09:36:20.000Z,16
2023-04-19T09:37:32.000Z,16.2
2023-04-19T09:38:44.000Z,16.1
2023-04-19T09:39:57.000Z,15.9
2023-04-19T09:41:09.000Z,16.1
2023-04-19T09:42:21.000Z,15.9
2023-04-19T09:43:32.000Z,16
2023-04-19T09:44:44.000Z,16.2
2023-04-19T09:45:57.000Z,15.9
2023-04-19T09:47:09.000Z,16.2
2023-04-19T09:48:21.000Z,16.2
2023-04-19T09:49:33.000Z,16.1
2023-04-19T09:50:45.000Z,15.9
2023-04-19T09:51:57.000Z,15.9
2023-04-19T09:53:10.000Z,16.2
2023-04-19T09:54:22.000Z,16.2
2023-04-19T09:55:34.000Z,16.1
2023-04-19T09:56:46.000Z,16.6
2023-04-19T09:57:58.000Z,15.9
2023-04-19T09:59:10.000Z,15.9
2023-04-19T10:00:22.000Z,16.8
2023-04-19T10:01:34.000Z,16.2
2023-04-19T10:02:46.000Z,16.1
2023-04-19T10:03:58.000Z,16.2
2023-04-19T10:05:11.000Z,15.9
2023-04-19T10:06:23.000Z,16.2
2023-04-19T10:07:35.000Z,16
2023-04-19T10:08:47.000Z,16.2
2023-04-19T10:09:59.000Z,15.9
2023-04-19T10:11:11.000Z,16.1
2023-04-19T10:12:24.000Z,16.2
2023-04-19T10:13:36.000Z,16.1
2023-04-19T10:14:47.000Z,16.5
2023-04-19T10:15:59.000Z,15.9
2023-04-19T10:17:11.000Z,16.2
2023-04-19T10:18:24.000Z,16.1
2023-04-19T10:19:36.000Z,16
2023-04-19T10:20:48.000Z,16.6
2023-04-19T10:22:00.000Z,16.2
2023-04-19T10:23:12.000Z,16.2
2023-04-19T10:24:25.000Z,16.5
2023-04-19T10:25:37.000Z,16.5
2023-04-19T10:26:49.000Z,16.2
2023-04-19T10:28:01.000Z,16.2
2023-04-19T10:29:13.000Z,16.2
2023-04-19T10:30:24.000Z,16.6
2023-04-19T10:31:37.000Z,16.5
2023-04-19T10:32:49.000Z,16.5
2023-04-19T10:34:01.000Z,16.6
2023-04-19T10:35:13.000Z,16.6
2023-04-19T10:36:25.000Z,16.5
2023-04-19T10:37:38.000Z,16.5
2023-04-19T10:38:50.000Z,16.2
2023-04-19T10:40:02.000Z,16.2
2023-04-19T10:41:14.000Z,16.2
2023-04-19T10:42:26.000Z,16.8
2023-04-19T10:43:38.000Z,16.5
2023-04-19T10:44:51.000Z,16.2
2023-04-19T10:46:03.000Z,16.8
2023-04-19T10:47:14.000Z,16.2
2023-04-19T10:48:26.000Z,16.2
2023-04-19T10:49:38.000Z,16.8
2023-04-19T10:50:51.000Z,16.8
2023-04-19T10:52:03.000Z,16.2
2023-04-19T10:53:15.000Z,16.5
2023-04-19T10:54:27.000Z,16.2
2023-04-19T10:55:39.000Z,16.9
2023-04-19T10:56:52.000Z,16.7
2023-04-19T10:58:04.000Z,16.5
2023-04-19T10:59:16.000Z,16.7
2023-04-19T11:00:28.000Z,16.7
2023-04-19T11:01:40.000Z,16.5
2023-04-19T11:02:51.000Z,16.8
2023-04-19T11:04:04.000Z,16.2
2023-04-19T11:05:16.000Z,16.5
2023-04-19T11:06:28.000Z,16.8
2023-04-19T11:07:40.000Z,16.8
2023-04-19T11:08:52.000Z,16.6
2023-04-19T11:10:05.000Z,16.8
2023-04-19T11:11:17.000Z,16.8
2023-04-19T11:12:29.000Z,16.7
2023-04-19T11:13:41.000Z,16.5
2023-04-19T11:14:53.000Z,16.7
2023-04-19T11:16:06.000Z,16.8
2023-04-19T11:17:18.000Z,16.5
2023-04-19T11:18:29.000Z,16.5
2023-04-19T11:19:41.000Z,16.8
2023-04-19T11:20:53.000Z,16.8
2023-04-19T11:22:05.000Z,16.5
2023-04-19T11:23:18.000Z,16.8
2023-04-19T11:24:30.000Z,16.8
2023-04-19T11:25:42.000Z,17
2023-04-19T11:26:54.000Z,17
2023-04-19T11:28:06.000Z,16.7
2023-04-19T11:29:19.000Z,16.8
2023-04-19T11:30:31.000Z,16.8
2023-04-19T11:31:43.000Z,16.7
2023-04-19T11:32:55.000Z,17
2023-04-19T11:34:06.000Z,16.9
2023-04-19T11:35:19.000Z,16.8
2023-04-19T11:36:31.000Z,16.9
2023-04-19T11:37:43.000Z,16.5
2023-04-19T11:38:55.000Z,16.8
2023-04-19T11:40:07.000Z,16.9
2023-04-19T11:41:19.000Z,16.9
2023-04-19T11:42:32.000Z,16.8
2023-04-19T11:43:44.000Z,16.9
2023-04-19T11:44:56.000Z,16.7
2023-04-19T11:46:08.000Z,16.9
2023-04-19T11:47:20.000Z,16.7
2023-04-19T11:48:33.000Z,16.8
2023-04-19T11:49:44.000Z,16.8
2023-04-19T11:50:56.000Z,16.8
2023-04-19T11:52:08.000Z,16.9
2023-04-19T11:53:20.000Z,16.8
2023-04-19T11:54:33.000Z,16.8
2023-04-19T11:55:45.000Z,16.9
2023-04-19T11:56:57.000Z,16.9
2023-04-19T11:58:09.000Z,16.9
2023-04-19T11:59:21.000Z,16.8
2023-04-19T12:00:33.000Z,16.9
2023-04-19T12:01:46.000Z,17.3
2023-04-19T12:02:58.000Z,16.9
2023-04-19T12:04:10.000Z,16.7
2023-04-19T12:05:21.000Z,16.9
2023-04-19T12:06:33.000Z,16.8
2023-04-19T12:07:46.000Z,16.9
2023-04-19T12:08:58.000Z,17
2023-04-19T12:10:10.000Z,17.3
2023-04-19T12:11:21.000Z,16.9
2023-04-19T12:12:33.000Z,16.9
2023-04-19T12:13:46.000Z,17.3
2023-04-19T12:14:58.000Z,16.9
2023-04-19T12:16:10.000Z,17.3
2023-04-19T12:17:22.000Z,17.3
2023-04-19T12:18:34.000Z,17.3
2023-04-19T12:19:46.000Z,17.4
2023-04-19T12:20:59.000Z,17.3
2023-04-19T12:22:11.000Z,17.3
2023-04-19T12:23:23.000Z,17.6
2023-04-19T12:24:35.000Z,17.4
2023-04-19T12:25:47.000Z,16.9
2023-04-19T12:26:59.000Z,17.5
2023-04-19T12:28:11.000Z,17.3
2023-04-19T12:29:23.000Z,16.9
2023-04-19T12:30:35.000Z,16.9
2023-04-19T12:31:47.000Z,16.8
2023-04-19T12:32:59.000Z,16.7
2023-04-19T12:34:12.000Z,17.3
2023-04-19T12:35:24.000Z,17.3
2023-04-19T12:36:36.000Z,17.3
2023-04-19T12:37:48.000Z,17.6
2023-04-19T12:39:00.000Z,17.3
2023-04-19T12:40:13.000Z,16.9
2023-04-19T12:41:25.000Z,17.3
2023-04-19T12:42:36.000Z,17.5
2023-04-19T12:43:48.000Z,17.2
2023-04-19T12:45:00.000Z,16.9
2023-04-19T12:46:13.000Z,16.9
2023-04-19T12:47:25.000Z,16.9
2023-04-19T12:48:37.000Z,17.3
2023-04-19T12:49:49.000Z,17.3
2023-04-19T12:51:01.000Z,17.3
2023-04-19T12:52:13.000Z,17.5
2023-04-19T12:53:26.000Z,16.9
2023-04-19T12:54:38.000Z,17.3
2023-04-19T12:55:50.000Z,16.8
2023-04-19T12:57:02.000Z,16.9
2023-04-19T12:58:13.000Z,16.7
2023-04-19T12:59:26.000Z,16.8
2023-04-19T13:00:38.000Z,17.3
2023-04-19T13:01:50.000Z,17.3
2023-04-19T13:03:02.000Z,17.1
2023-04-19T13:04:14.000Z,17.3
2023-04-19T13:05:27.000Z,16.8
2023-04-19T13:06:39.000Z,16.9
2023-04-19T13:07:51.000Z,16.9
2023-04-19T13:09:03.000Z,17.3
2023-04-19T13:10:15.000Z,16.9
2023-04-19T13:11:27.000Z,16.8
2023-04-19T13:12:40.000Z,17.3
2023-04-19T13:13:51.000Z,17
2023-04-19T13:15:03.000Z,17.3
2023-04-19T13:16:15.000Z,16.9
2023-04-19T13:17:27.000Z,16.9
2023-04-19T13:18:40.000Z,16.9
2023-04-19T13:19:52.000Z,16.9
2023-04-19T13:21:04.000Z,17.3
2023-04-19T13:22:16.000Z,16.9
2023-04-19T13:23:28.000Z,16.9
2023-04-19T13:24:41.000Z,17.6
2023-04-19T13:25:53.000Z,16.9
2023-04-19T13:27:05.000Z,17.3
2023-04-19T13:28:17.000Z,16.7
2023-04-19T13:29:28.000Z,16.9
2023-04-19T13:30:40.000Z,16.9
2023-04-19T13:31:53.000Z,17.4
2023-04-19T13:33:05.000Z,17
2023-04-19T13:34:17.000Z,16.9
2023-04-19T13:35:29.000Z,16.9
2023-04-19T13:36:41.000Z,17.3
2023-04-19T13:37:54.000Z,17.3
2023-04-19T13:39:06.000Z,16.9
2023-04-19T13:40:18.000Z,16.9
2023-04-19T13:41:30.000Z,16.9
2023-04-19T13:42:42.000Z,16.9
2023-04-19T13:43:54.000Z,16.9
2023-04-19T13:45:06.000Z,17.3
2023-04-19T13:46:18.000Z,17.3
2023-04-19T13:47:30.000Z,16.9
2023-04-19T13:48:42.000Z,17.1
2023-04-19T13:49:54.000Z,16.9
2023-04-19T13:51:07.000Z,17.3
2023-04-19T13:52:19.000Z,16.9
2023-04-19T13:53:31.000Z,16.9
2023-04-19T13:54:43.000Z,17.3
2023-04-19T13:55:55.000Z,16.9
2023-04-19T13:57:08.000Z,16.9
2023-04-19T13:58:20.000Z,16.9
2023-04-19T13:59:32.000Z,17
2023-04-19T14:00:43.000Z,16.9
2023-04-19T14:01:55.000Z,17.3
2023-04-19T14:03:07.000Z,17.2
2023-04-19T14:04:20.000Z,16.9
2023-04-19T14:05:32.000Z,17.3
2023-04-19T14:06:44.000Z,16.9
2023-04-19T14:07:56.000Z,17.3
2023-04-19T14:09:08.000Z,17.3
2023-04-19T14:10:21.000Z,17.3
2023-04-19T14:11:33.000Z,17.3
2023-04-19T14:12:45.000Z,17.3
2023-04-19T14:13:57.000Z,16.9
2023-04-19T14:15:09.000Z,17.3
2023-04-19T14:16:21.000Z,17
2023-04-19T14:17:33.000Z,17
2023-04-19T14:18:45.000Z,17.3
2023-04-19T14:19:57.000Z,16.9
2023-04-19T14:21:09.000Z,17
2023-04-19T14:22:21.000Z,16.9
2023-04-19T14:23:34.000Z,17
2023-04-19T14:24:46.000Z,16.9
2023-04-19T14:25:58.000Z,16.9
2023-04-19T14:27:10.000Z,16.7
2023-04-19T14:28:22.000Z,16.9
2023-04-19T14:29:35.000Z,16.9
2023-04-19T14:30:47.000Z,16.9
2023-04-19T14:31:59.000Z,16.9
2023-04-19T14:33:10.000Z,16.9
2023-04-19T14:34:22.000Z,16.8
2023-04-19T14:35:35.000Z,17.3
2023-04-19T14:36:47.000Z,16.9
2023-04-19T14:39:11.000Z,16.9
2023-04-19T14:39:12.526Z,16.9
2023-04-19T14:40:23.000Z,16.7
2023-04-19T14:41:35.000Z,16.9
2023-04-19T14:42:48.000Z,16.9
2023-04-19T14:44:00.000Z,16.8
2023-04-19T14:46:24.000Z,16.9
2023-04-19T14:46:25.645Z,16.7
2023-04-19T14:47:36.000Z,17
2023-04-19T14:48:48.000Z,16.9
2023-04-19T14:50:00.000Z,16.9
2023-04-19T14:51:12.000Z,16.8
2023-04-19T14:52:24.000Z,16.7
2023-04-19T14:53:36.000Z,16.8
2023-04-19T14:54:49.000Z,16.8
2023-04-19T14:56:01.000Z,16.9
2023-04-19T14:57:13.000Z,16.8
2023-04-19T14:58:25.000Z,16.8
2023-04-19T14:59:37.000Z,16.9
2023-04-19T15:00:49.000Z,16.8
2023-04-19T15:02:02.000Z,16.9
2023-04-19T15:03:14.000Z,17.3
2023-04-19T15:04:25.000Z,16.9
2023-04-19T15:05:37.000Z,16.7
2023-04-19T15:06:49.000Z,16.9
2023-04-19T15:08:02.000Z,16.7
2023-04-19T15:09:14.000Z,16.7
2023-04-19T15:10:26.000Z,16.9
2023-04-19T15:11:38.000Z,17
2023-04-19T15:12:50.000Z,16.9
2023-04-19T15:14:02.000Z,16.9
2023-04-19T15:15:15.000Z,16.9
2023-04-19T15:16:27.000Z,16.9
2023-04-19T15:17:39.000Z,16.9
2023-04-19T15:18:51.000Z,17
2023-04-19T15:20:02.000Z,16.7
2023-04-19T15:21:15.000Z,16.9
2023-04-19T15:22:27.000Z,16.9
2023-04-19T15:23:39.000Z,16.8
2023-04-19T15:24:51.000Z,16.8
2023-04-19T15:26:03.000Z,16.9
2023-04-19T15:27:16.000Z,16.9
2023-04-19T15:28:28.000Z,17.3
2023-04-19T15:29:40.000Z,17
2023-04-19T15:30:52.000Z,16.7
2023-04-19T15:32:04.000Z,16.8
2023-04-19T15:33:16.000Z,16.9
2023-04-19T15:34:29.000Z,16.7
2023-04-19T15:35:40.000Z,16.9
2023-04-19T15:36:52.000Z,17.3
2023-04-19T15:38:04.000Z,16.9
2023-04-19T15:39:16.000Z,16.8
2023-04-19T15:40:29.000Z,16.9
2023-04-19T15:41:41.000Z,17
2023-04-19T15:42:53.000Z,16.7
2023-04-19T15:44:05.000Z,16.9
2023-04-19T15:45:17.000Z,17
2023-04-19T15:46:30.000Z,16.7
2023-04-19T15:47:42.000Z,16.8
2023-04-19T15:48:54.000Z,16.8
2023-04-19T15:50:06.000Z,16.9
2023-04-19T15:51:17.000Z,16.8
2023-04-19T15:52:29.000Z,16.7
2023-04-19T15:53:42.000Z,16.9
2023-04-19T15:54:54.000Z,16.9
2023-04-19T15:56:06.000Z,16.9
2023-04-19T15:57:18.000Z,16.7
2023-04-19T15:58:30.000Z,16.9
2023-04-19T15:59:43.000Z,17.3
2023-04-19T16:00:55.000Z,16.7
2023-04-19T16:02:07.000Z,16.9
2023-04-19T16:03:19.000Z,16.7
2023-04-19T16:04:31.000Z,16.9